createdAt,value
2018-11-03T01:29:39.215Z,0.00
2018-11-03T01:29:39.788Z,0.00
2018-11-03T01:29:40.388Z,0.00
2018-11-03T01:29:40.987Z,0.00
2018-11-03T01:29:41.587Z,0.00
2018-11-03T01:29:42.187Z,0.00
2018-11-03T01:30:36.661Z,0.00
2018-11-03T01:30:37.235Z,0.00
2018-11-03T01:30:37.836Z,0.00
2018-11-03T01:30:38.436Z,0.00
2018-11-03T01:30:39.033Z,0.00
2018-11-03T01:30:39.655Z,0.00
2018-11-03T01:30:40.231Z,0.00
2018-11-03T01:30:40.832Z,0.00
2018-11-03T01:31:35.338Z,0.00
2018-11-03T01:31:35.913Z,0.00
2018-11-03T01:31:36.509Z,0.00
2018-11-03T01:31:37.108Z,0.00
2018-11-03T01:31:37.712Z,0.00
2018-11-03T01:31:38.310Z,0.00
2018-11-03T01:31:38.917Z,0.00
2018-11-03T01:31:39.508Z,0.00
2018-11-03T01:32:34.078Z,0.00
2018-11-03T01:32:34.639Z,0.00
2018-11-03T01:32:35.305Z,0.00
2018-11-03T01:32:35.879Z,0.00
2018-11-03T01:32:36.483Z,0.00
2018-11-03T01:32:37.100Z,0.00
2018-11-03T01:32:37.647Z,0.00
2018-11-03T01:32:38.241Z,0.00
2018-11-03T01:33:31.669Z,0.00
2018-11-03T01:33:32.241Z,0.00
2018-11-03T01:33:32.840Z,0.00
2018-11-03T01:33:33.441Z,0.00
2018-11-03T01:33:34.039Z,0.00
2018-11-03T01:33:34.640Z,0.00
2018-11-03T01:33:35.239Z,0.00
2018-11-03T01:33:35.838Z,0.00
2018-11-03T01:34:30.344Z,0.00
2018-11-03T01:34:30.916Z,0.00
2018-11-03T01:34:31.516Z,0.00
2018-11-03T01:34:32.117Z,0.00
2018-11-03T01:34:32.716Z,0.00
2018-11-03T01:34:33.314Z,0.00
2018-11-03T01:34:33.919Z,0.00
2018-11-03T01:34:34.515Z,0.00
2018-11-03T01:36:19.095Z,0.00
2018-11-03T01:36:19.666Z,0.00
2018-11-03T01:36:20.266Z,0.00
2018-11-03T01:36:20.867Z,0.00
2018-11-03T01:36:21.468Z,0.00
2018-11-03T01:36:22.065Z,0.00
2018-11-03T01:37:15.620Z,0.00
2018-11-03T01:37:16.192Z,0.00
2018-11-03T01:37:16.792Z,0.00
2018-11-03T01:37:17.392Z,0.00
2018-11-03T01:37:17.995Z,0.00
2018-11-03T01:37:18.591Z,0.00
2018-11-03T01:37:19.192Z,0.00
2018-11-03T01:37:19.790Z,0.00
2018-11-03T01:38:14.814Z,0.00
2018-11-03T01:38:15.382Z,0.00
2018-11-03T01:38:15.981Z,0.00
2018-11-03T01:38:16.581Z,0.00
2018-11-03T01:38:17.179Z,0.00
2018-11-03T01:38:17.780Z,0.00
2018-11-03T01:38:18.378Z,0.00
2018-11-03T01:39:11.846Z,0.00
2018-11-03T01:39:12.421Z,0.00
2018-11-03T01:39:13.018Z,0.00
2018-11-03T01:39:13.618Z,0.00
2018-11-03T01:39:14.218Z,0.00
2018-11-03T01:39:14.817Z,0.00
2018-11-03T01:39:15.416Z,0.00
2018-11-03T01:39:16.016Z,0.00
2018-11-03T01:40:17.115Z,0.00
2018-11-03T01:40:17.648Z,0.00
2018-11-03T01:40:18.245Z,0.00
2018-11-03T01:40:18.846Z,0.00
2018-11-03T01:40:19.445Z,0.00
2018-11-03T01:40:20.047Z,0.00
2018-11-03T01:40:20.642Z,0.00
2018-11-03T01:40:21.244Z,0.00
2018-11-03T01:40:21.844Z,0.00
2018-11-03T01:40:22.447Z,0.00
2018-11-03T01:40:23.042Z,0.00
2018-11-03T01:40:23.642Z,0.00
2018-11-03T01:41:17.695Z,0.00
2018-11-03T01:41:18.269Z,0.00
2018-11-03T01:41:18.868Z,0.00
2018-11-03T01:41:19.467Z,0.00
2018-11-03T01:41:20.066Z,0.00
2018-11-03T01:41:20.668Z,0.00
2018-11-03T01:41:21.266Z,0.00
2018-11-03T01:42:15.757Z,0.00
2018-11-03T01:42:16.329Z,0.00
2018-11-03T01:42:16.928Z,0.00
2018-11-03T01:42:17.529Z,0.00
2018-11-03T01:42:18.129Z,0.00
2018-11-03T01:42:18.728Z,0.00
2018-11-03T01:42:19.329Z,0.00
2018-11-03T01:42:19.927Z,0.00
2018-11-03T01:43:13.409Z,0.00
2018-11-03T01:43:13.981Z,0.00
2018-11-03T01:43:14.579Z,0.00
2018-11-03T01:43:15.182Z,0.00
2018-11-03T01:43:15.782Z,0.00
2018-11-03T01:43:16.380Z,0.00
2018-11-03T01:43:16.983Z,0.00
2018-11-03T01:43:17.579Z,0.00
2018-11-03T01:44:12.086Z,0.00
2018-11-03T01:44:12.681Z,0.00
2018-11-03T01:44:13.258Z,0.00
2018-11-03T01:44:13.856Z,0.00
2018-11-03T01:44:14.457Z,0.00
2018-11-03T01:44:15.059Z,0.00
2018-11-03T01:44:15.656Z,0.00
2018-11-03T01:44:16.255Z,0.00
2018-11-03T01:48:27.685Z,0.00
2018-11-03T01:48:28.250Z,0.00
2018-11-03T01:48:28.850Z,0.00
2018-11-03T01:48:29.448Z,0.00
2018-11-03T01:48:30.051Z,0.00
2018-11-03T01:48:30.649Z,0.00
2018-11-03T01:50:53.471Z,0.00
2018-11-03T01:50:54.038Z,0.00
2018-11-03T01:50:54.637Z,0.00
2018-11-03T01:50:55.237Z,0.00
2018-11-03T01:50:55.837Z,0.00
2018-11-03T01:50:56.436Z,0.00
2018-11-03T01:50:57.037Z,0.00
2018-11-03T01:50:57.635Z,0.00
2018-11-03T01:50:58.238Z,0.00
2018-11-03T01:50:58.839Z,0.00
2018-11-03T01:50:59.436Z,0.00
2018-11-03T01:51:00.036Z,0.00
2018-11-03T01:51:59.137Z,0.00
2018-11-03T01:51:59.707Z,0.00
2018-11-03T01:52:00.305Z,0.00
2018-11-03T01:52:00.911Z,0.00
2018-11-03T01:52:01.508Z,0.00
2018-11-03T01:52:02.106Z,0.00
2018-11-03T01:52:02.708Z,0.00
2018-11-03T01:52:03.312Z,0.00
2018-11-03T01:52:03.904Z,0.00
2018-11-03T01:52:04.506Z,0.00
2018-11-03T01:52:05.105Z,0.00
2018-11-03T01:52:05.705Z,0.00
2018-11-03T01:52:06.305Z,0.00
2018-11-03T01:52:06.904Z,0.00
2018-11-03T01:52:07.508Z,0.00
2018-11-03T01:52:08.104Z,0.00
2018-11-03T01:53:36.736Z,0.00
2018-11-03T01:53:37.293Z,0.00
2018-11-03T01:53:37.896Z,0.00
2018-11-03T01:53:38.494Z,0.00
2018-11-03T01:53:39.093Z,0.00
2018-11-03T01:53:39.693Z,0.00
2018-11-03T01:53:40.292Z,0.00
2018-11-03T01:53:40.895Z,0.00
2018-11-03T01:53:41.492Z,0.00
2018-11-03T01:53:42.093Z,0.00
2018-11-03T01:53:42.716Z,0.00
2018-11-03T01:53:43.291Z,0.00
2018-11-03T01:53:43.893Z,0.00
2018-11-03T01:53:44.493Z,0.00
2018-11-03T01:53:45.092Z,0.00
2018-11-03T01:53:45.691Z,0.00
2018-11-03T01:54:51.271Z,0.00
2018-11-03T01:54:51.846Z,0.00
2018-11-03T01:54:52.442Z,0.00
2018-11-03T01:54:53.042Z,0.00
2018-11-03T01:54:53.643Z,0.00
2018-11-03T01:55:47.697Z,0.00
2018-11-03T01:55:48.268Z,0.00
2018-11-03T01:55:48.868Z,0.00
2018-11-03T01:55:49.468Z,0.00
2018-11-03T01:55:50.066Z,0.00
2018-11-03T01:55:50.666Z,0.00
2018-11-03T01:55:51.267Z,0.00
2018-11-03T01:55:51.862Z,0.00
2018-11-03T01:56:52.925Z,0.00
2018-11-03T01:56:53.496Z,0.00
2018-11-03T01:56:54.096Z,0.00
2018-11-03T01:56:54.694Z,0.00
2018-11-03T01:56:55.295Z,0.00
2018-11-03T01:56:55.896Z,0.00
2018-11-03T01:56:56.494Z,0.00
2018-11-03T01:56:57.094Z,0.00
2018-11-03T01:56:57.694Z,0.00
2018-11-03T01:56:58.301Z,0.00
2018-11-03T01:56:58.896Z,0.00
2018-11-03T01:56:59.494Z,0.00
2018-11-03T01:57:53.546Z,0.00
2018-11-03T01:57:54.118Z,0.00
2018-11-03T01:57:54.716Z,0.00
2018-11-03T01:57:55.316Z,0.00
2018-11-03T01:57:55.917Z,0.00
2018-11-03T01:57:56.517Z,0.00
2018-11-03T01:57:57.156Z,0.00
2018-11-03T01:58:50.592Z,0.00
2018-11-03T01:58:51.155Z,0.00
2018-11-03T01:58:51.753Z,0.00
2018-11-03T01:58:52.355Z,0.00
2018-11-03T01:58:52.955Z,0.00
2018-11-03T01:58:53.554Z,0.00
2018-11-03T01:58:54.154Z,0.00
2018-11-03T01:58:54.754Z,0.00
2018-11-03T01:59:49.257Z,0.00
2018-11-03T01:59:49.830Z,0.00
2018-11-03T01:59:50.431Z,0.00
2018-11-03T01:59:51.032Z,0.00
2018-11-03T01:59:51.630Z,0.00
2018-11-03T01:59:52.229Z,0.00
2018-11-03T01:59:52.829Z,0.00
2018-11-03T01:59:53.430Z,0.00
2018-11-03T02:00:49.981Z,0.00
2018-11-03T02:00:50.553Z,0.00
2018-11-03T02:00:51.153Z,0.00
2018-11-03T02:01:45.695Z,0.00
2018-11-03T02:01:46.260Z,0.00
2018-11-03T02:01:46.859Z,0.00
2018-11-03T02:01:47.459Z,0.00
2018-11-03T02:01:48.060Z,0.00
2018-11-03T02:01:48.658Z,0.00
2018-11-03T02:01:49.258Z,0.00
2018-11-03T02:01:49.858Z,0.00
2018-11-03T02:02:44.363Z,0.00
2018-11-03T02:02:44.936Z,0.00
2018-11-03T02:02:45.537Z,0.00
2018-11-03T02:02:46.135Z,0.00
2018-11-03T02:02:46.735Z,0.00
2018-11-03T02:02:47.336Z,0.00
2018-11-03T02:02:47.937Z,0.00
2018-11-03T02:02:48.534Z,0.00
2018-11-03T02:03:43.555Z,0.00
2018-11-03T02:03:44.124Z,0.00
2018-11-03T02:03:44.723Z,0.00
2018-11-03T02:03:45.323Z,0.00
2018-11-03T02:03:45.922Z,0.00
2018-11-03T02:03:46.523Z,0.00
2018-11-03T02:03:47.123Z,0.00
2018-11-03T02:04:40.693Z,0.00
2018-11-03T02:04:41.264Z,0.00
2018-11-03T02:04:41.865Z,0.00
2018-11-03T02:04:42.465Z,0.00
2018-11-03T02:04:43.063Z,0.00
2018-11-03T02:04:43.662Z,0.00
2018-11-03T02:04:44.263Z,0.00
2018-11-03T02:04:44.863Z,0.00
2018-11-03T02:05:38.854Z,0.00
2018-11-03T02:05:39.427Z,0.00
2018-11-03T02:05:40.029Z,0.00
2018-11-03T02:05:40.624Z,0.00
2018-11-03T02:05:41.225Z,0.00
2018-11-03T02:05:41.826Z,0.00
2018-11-03T02:05:42.426Z,0.00
2018-11-03T02:06:40.909Z,0.00
2018-11-03T02:06:41.481Z,0.00
2018-11-03T02:06:42.079Z,0.00
2018-11-03T02:06:42.682Z,0.00
2018-11-03T02:06:43.280Z,0.00
2018-11-03T02:06:43.882Z,0.00
2018-11-03T02:06:44.478Z,0.00
2018-11-03T02:06:45.079Z,0.00
2018-11-03T02:06:45.680Z,0.00
2018-11-03T02:06:46.280Z,0.00
2018-11-03T02:06:46.877Z,0.00
2018-11-03T02:06:47.481Z,0.00
2018-11-03T02:06:48.079Z,0.00
2018-11-03T02:06:48.681Z,0.00
2018-11-03T02:06:49.278Z,0.00
2018-11-03T02:06:49.878Z,0.00
2018-11-03T02:06:50.477Z,0.00
2018-11-03T02:07:51.977Z,0.00
2018-11-03T02:07:52.550Z,0.00
2018-11-03T02:07:53.147Z,0.00
2018-11-03T02:07:53.749Z,0.00
2018-11-03T02:07:54.348Z,0.00
2018-11-03T02:07:54.947Z,0.00
2018-11-03T02:07:55.548Z,0.00
2018-11-03T02:07:56.148Z,0.00
2018-11-03T02:07:56.747Z,0.00
2018-11-03T02:07:57.350Z,0.00
2018-11-03T02:07:57.966Z,0.00
2018-11-03T02:07:58.545Z,0.00
2018-11-03T02:08:52.093Z,0.00
2018-11-03T02:08:52.657Z,0.00
2018-11-03T02:08:53.258Z,0.00
2018-11-03T02:08:53.858Z,0.00
2018-11-03T02:08:54.458Z,0.00
2018-11-03T02:08:55.058Z,0.00
2018-11-03T02:08:55.657Z,0.00
2018-11-03T02:08:56.258Z,0.00
2018-11-03T02:09:49.741Z,0.00
2018-11-03T02:09:50.346Z,0.00
2018-11-03T02:09:50.909Z,0.00
2018-11-03T02:09:51.512Z,0.00
2018-11-03T02:09:52.109Z,0.00
2018-11-03T02:09:52.708Z,0.00
2018-11-03T02:09:53.309Z,0.00
2018-11-03T02:09:53.908Z,0.00
2018-11-03T02:10:48.414Z,0.00
2018-11-03T02:10:48.986Z,0.00
2018-11-03T02:10:49.586Z,0.00
2018-11-03T02:10:50.184Z,0.00
2018-11-03T02:10:50.783Z,0.00
2018-11-03T02:10:51.397Z,0.00
2018-11-03T02:10:51.983Z,0.00
2018-11-03T02:10:52.584Z,0.00
2018-11-03T02:11:47.090Z,0.00
2018-11-03T02:11:47.661Z,0.00
2018-11-03T02:11:48.260Z,0.00
2018-11-03T02:11:48.860Z,0.00
2018-11-03T02:11:49.460Z,0.00
2018-11-03T02:11:50.060Z,0.00
2018-11-03T02:11:50.661Z,0.00
2018-11-03T02:11:51.259Z,0.00
2018-11-03T02:12:47.811Z,0.00
2018-11-03T02:12:48.388Z,0.00
2018-11-03T02:12:48.986Z,0.00
2018-11-03T02:14:34.105Z,0.00
2018-11-03T02:14:34.677Z,0.00
2018-11-03T02:14:35.277Z,0.00
2018-11-03T02:14:35.876Z,0.00
2018-11-03T02:14:36.476Z,0.00
2018-11-03T05:44:20.397Z,0.00
2018-11-03T05:44:20.968Z,0.00
2018-11-03T05:44:21.567Z,0.00
2018-11-03T05:45:16.616Z,0.00
2018-11-03T05:45:17.188Z,0.00
2018-11-03T05:45:17.787Z,0.00
2018-11-03T05:45:18.387Z,0.00
2018-11-03T05:45:18.984Z,0.00
2018-11-03T05:45:19.589Z,0.00
2018-11-03T05:46:13.637Z,0.00
2018-11-03T05:46:14.156Z,0.00
2018-11-03T05:46:14.724Z,0.00
2018-11-03T05:46:15.398Z,0.00
2018-11-03T05:46:15.977Z,0.00
2018-11-03T05:46:16.565Z,0.00
2018-11-03T05:46:17.129Z,0.00
2018-11-03T05:46:17.741Z,0.00
2018-11-03T05:47:11.722Z,0.00
2018-11-03T05:47:12.289Z,0.00
2018-11-03T05:47:12.886Z,0.00
2018-11-03T05:47:13.491Z,0.00
2018-11-03T05:47:14.086Z,0.00
2018-11-03T05:47:14.685Z,0.00
2018-11-03T05:47:15.290Z,0.00
2018-11-03T05:48:10.289Z,0.00
2018-11-03T05:48:10.863Z,0.00
2018-11-03T05:48:11.459Z,0.00
2018-11-03T05:48:12.061Z,0.00
2018-11-03T05:48:12.658Z,0.00
2018-11-03T05:48:13.269Z,0.00
2018-11-03T05:48:13.858Z,0.00
2018-11-03T05:49:07.327Z,0.00
2018-11-03T05:49:07.900Z,0.00
2018-11-03T05:49:08.499Z,0.00
2018-11-03T05:49:09.099Z,0.00
2018-11-03T05:49:09.702Z,0.00
2018-11-03T05:49:10.305Z,0.00
2018-11-03T05:49:10.898Z,0.00
2018-11-03T05:49:11.497Z,0.00
2018-11-03T05:50:08.050Z,0.00
2018-11-03T05:50:08.622Z,0.00
2018-11-03T05:50:09.219Z,0.00
2018-11-03T05:51:03.755Z,0.00
2018-11-03T05:51:04.327Z,0.00
2018-11-03T05:51:04.927Z,0.00
2018-11-03T05:51:05.526Z,0.00
2018-11-03T05:51:06.127Z,4.00
2018-11-03T05:51:06.725Z,0.00
2018-11-03T05:51:07.328Z,0.00
2018-11-03T05:51:07.932Z,0.00
2018-11-03T05:52:01.408Z,4.00
2018-11-03T05:52:01.982Z,4.00
2018-11-03T05:52:02.580Z,4.00
2018-11-03T05:52:03.189Z,4.00
2018-11-03T05:52:03.784Z,4.00
2018-11-03T05:52:04.378Z,4.00
2018-11-03T05:52:04.984Z,4.00
2018-11-03T05:52:05.579Z,4.00
2018-11-03T05:53:16.704Z,4.00
2018-11-03T05:53:17.243Z,4.00
2018-11-03T05:53:17.845Z,4.00
2018-11-03T05:53:18.445Z,4.00
2018-11-03T05:53:19.045Z,4.00
2018-11-03T05:53:19.646Z,4.00
2018-11-03T05:53:20.241Z,4.00
2018-11-03T05:53:20.844Z,4.00
2018-11-03T05:53:21.443Z,4.00
2018-11-03T05:53:22.049Z,4.00
2018-11-03T05:53:22.642Z,4.00
2018-11-03T05:53:23.240Z,4.00
2018-11-03T05:54:17.293Z,0.00
2018-11-03T05:54:17.867Z,0.00
2018-11-03T05:54:18.464Z,0.00
2018-11-03T05:54:19.066Z,0.00
2018-11-03T05:54:19.666Z,0.00
2018-11-03T05:54:20.315Z,0.00
2018-11-03T05:54:20.866Z,0.00
2018-11-03T05:56:02.870Z,4.00
2018-11-03T05:56:03.441Z,4.00
2018-11-03T05:56:04.040Z,4.00
2018-11-03T05:56:04.645Z,4.00
2018-11-03T05:56:05.245Z,4.00
2018-11-03T05:56:05.839Z,4.00
2018-11-03T05:56:06.441Z,4.00
2018-11-03T05:56:07.040Z,4.00
2018-11-03T05:56:07.640Z,4.00
2018-11-03T05:56:08.240Z,4.00
2018-11-03T05:56:08.844Z,4.00
2018-11-03T05:57:05.846Z,0.00
2018-11-03T05:57:06.418Z,4.00
2018-11-03T05:57:07.019Z,8.00
2018-11-03T05:58:00.533Z,4.00
2018-11-03T05:58:01.101Z,4.00
2018-11-03T05:58:01.701Z,4.00
2018-11-03T05:58:02.302Z,4.00
2018-11-03T05:58:02.899Z,4.00
2018-11-03T05:58:03.497Z,4.00
2018-11-03T05:58:04.097Z,4.00
2018-11-03T05:58:04.700Z,4.00
2018-11-03T05:58:58.261Z,8.00
2018-11-03T05:58:58.827Z,4.00
2018-11-03T05:58:59.574Z,4.00
2018-11-03T05:59:00.022Z,8.00
2018-11-03T05:59:00.569Z,4.00
2018-11-03T05:59:01.240Z,4.00
2018-11-03T05:59:01.945Z,4.00
2018-11-03T05:59:02.530Z,4.00
2018-11-03T05:59:56.854Z,8.00
2018-11-03T05:59:57.456Z,8.00
2018-11-03T05:59:58.028Z,8.00
2018-11-03T05:59:58.630Z,8.00
2018-11-03T05:59:59.228Z,8.00
2018-11-03T05:59:59.828Z,8.00
2018-11-03T06:00:00.426Z,8.00
2018-11-03T06:00:01.028Z,8.00
2018-11-03T06:00:55.535Z,8.00
2018-11-03T06:00:56.104Z,8.00
2018-11-03T06:00:56.729Z,8.00
2018-11-03T06:00:57.304Z,8.00
2018-11-03T06:00:57.903Z,8.00
2018-11-03T06:00:58.503Z,8.00
2018-11-03T06:00:59.106Z,8.00
2018-11-03T06:00:59.701Z,8.00
2018-11-03T06:01:54.208Z,8.00
2018-11-03T06:01:54.779Z,8.00
2018-11-03T06:01:55.379Z,8.00
2018-11-03T06:01:55.978Z,8.00
2018-11-03T06:01:56.578Z,8.00
2018-11-03T06:01:57.177Z,8.00
2018-11-03T06:01:57.777Z,8.00
2018-11-03T06:01:58.381Z,8.00
2018-11-03T06:02:52.897Z,12.00
2018-11-03T06:02:53.455Z,12.00
2018-11-03T06:02:54.055Z,12.00
2018-11-03T06:02:54.654Z,12.00
2018-11-03T06:02:55.254Z,12.00
2018-11-03T06:02:55.853Z,12.00
2018-11-03T06:02:56.454Z,12.00
2018-11-03T06:02:57.054Z,12.00
2018-11-03T06:03:52.071Z,12.00
2018-11-03T06:03:52.642Z,12.00
2018-11-03T06:03:53.242Z,12.00
2018-11-03T06:03:53.843Z,12.00
2018-11-03T06:03:54.461Z,12.00
2018-11-03T06:03:55.044Z,12.00
2018-11-03T06:04:50.542Z,12.00
2018-11-03T06:04:51.117Z,12.00
2018-11-03T06:04:51.736Z,12.00
2018-11-03T06:04:52.314Z,12.00
2018-11-03T06:04:52.918Z,12.00
2018-11-03T06:04:53.516Z,12.00
2018-11-03T06:05:50.547Z,16.00
2018-11-03T06:05:51.120Z,16.00
2018-11-03T06:05:51.724Z,16.00
2018-11-03T06:06:46.254Z,16.00
2018-11-03T06:06:46.827Z,20.00
2018-11-03T06:06:47.426Z,16.00
2018-11-03T06:06:48.027Z,20.00
2018-11-03T06:06:48.625Z,16.00
2018-11-03T06:06:49.224Z,20.00
2018-11-03T06:06:49.827Z,20.00
2018-11-03T06:06:50.426Z,20.00
2018-11-03T06:07:45.442Z,20.00
2018-11-03T06:07:46.015Z,20.00
2018-11-03T06:07:46.613Z,20.00
2018-11-03T06:07:47.213Z,20.00
2018-11-03T06:07:47.813Z,20.00
2018-11-03T06:07:48.414Z,20.00
2018-11-03T06:07:49.012Z,20.00
2018-11-03T06:08:43.112Z,24.00
2018-11-03T06:08:43.577Z,24.00
2018-11-03T06:08:44.230Z,24.00
2018-11-03T06:08:44.797Z,24.00
2018-11-03T06:08:45.411Z,24.00
2018-11-03T06:08:46.029Z,24.00
2018-11-03T06:08:46.605Z,24.00
2018-11-03T06:09:40.029Z,28.00
2018-11-03T06:09:40.612Z,28.00
2018-11-03T06:09:41.200Z,32.00
2018-11-03T06:09:41.801Z,24.00
2018-11-03T06:09:42.401Z,28.00
2018-11-03T06:09:42.999Z,28.00
2018-11-03T06:09:43.599Z,28.00
2018-11-03T06:09:44.200Z,28.00
2018-11-03T06:10:38.193Z,32.00
2018-11-03T06:10:38.773Z,32.00
2018-11-03T06:10:39.362Z,32.00
2018-11-03T06:10:39.967Z,32.00
2018-11-03T06:10:40.562Z,32.00
2018-11-03T06:10:41.162Z,36.00
2018-11-03T06:10:41.763Z,32.00
2018-11-03T06:11:35.230Z,36.00
2018-11-03T06:11:35.801Z,40.00
2018-11-03T06:11:36.402Z,40.00
2018-11-03T06:11:37.002Z,40.00
2018-11-03T06:11:37.602Z,40.00
2018-11-03T06:11:38.206Z,36.00
2018-11-03T06:11:38.801Z,36.00
2018-11-03T06:11:39.401Z,36.00
2018-11-03T06:12:34.419Z,40.00
2018-11-03T06:12:34.990Z,44.00
2018-11-03T06:12:35.590Z,40.00
2018-11-03T06:12:36.190Z,44.00
2018-11-03T06:12:36.789Z,44.00
2018-11-03T06:12:37.388Z,44.00
2018-11-03T06:13:31.864Z,48.00
2018-11-03T06:13:32.439Z,48.00
2018-11-03T06:13:33.036Z,48.00
2018-11-03T06:13:33.635Z,48.00
2018-11-03T06:13:34.235Z,48.00
2018-11-03T06:13:34.834Z,48.00
2018-11-03T06:13:35.445Z,52.00
2018-11-03T06:14:28.903Z,56.00
2018-11-03T06:14:29.476Z,56.00
2018-11-03T06:14:30.078Z,56.00
2018-11-03T06:14:30.677Z,56.00
2018-11-03T06:14:31.272Z,56.00
2018-11-03T06:14:31.877Z,56.00
2018-11-03T06:14:32.473Z,56.00
2018-11-03T06:14:33.073Z,56.00
2018-11-03T06:15:29.636Z,64.00
2018-11-03T06:15:30.296Z,64.00
2018-11-03T06:15:30.818Z,60.00
2018-11-03T06:16:24.309Z,72.00
2018-11-03T06:16:24.883Z,72.00
2018-11-03T06:16:25.481Z,72.00
2018-11-03T06:16:26.084Z,72.00
2018-11-03T06:16:26.681Z,72.00
2018-11-03T06:16:27.279Z,68.00
2018-11-03T06:16:27.879Z,72.00
2018-11-03T06:16:28.479Z,72.00
2018-11-03T06:17:21.963Z,80.00
2018-11-03T06:17:22.534Z,80.00
2018-11-03T06:17:23.131Z,80.00
2018-11-03T06:17:23.735Z,80.00
2018-11-03T06:17:24.331Z,80.00
2018-11-03T06:17:24.985Z,80.00
2018-11-03T06:17:25.541Z,80.00
2018-11-03T06:17:26.131Z,80.00
2018-11-03T06:18:19.613Z,88.00
2018-11-03T06:18:20.183Z,88.00
2018-11-03T06:18:20.784Z,88.00
2018-11-03T06:18:21.383Z,88.00
2018-11-03T06:18:21.985Z,92.00
2018-11-03T06:18:22.584Z,88.00
2018-11-03T06:18:23.185Z,88.00
2018-11-03T06:18:23.782Z,88.00
2018-11-03T06:19:17.263Z,96.00
2018-11-03T06:19:17.837Z,96.00
2018-11-03T06:19:18.436Z,96.00
2018-11-03T06:19:19.035Z,96.00
2018-11-03T06:19:19.635Z,96.00
2018-11-03T06:19:20.234Z,96.00
2018-11-03T06:19:20.836Z,96.00
2018-11-03T06:19:21.435Z,96.00
2018-11-03T06:20:17.986Z,108.00
2018-11-03T06:20:18.673Z,108.00
2018-11-03T06:20:19.158Z,108.00
2018-11-03T06:21:15.131Z,112.00
2018-11-03T06:21:15.699Z,112.00
2018-11-03T06:21:16.297Z,112.00
2018-11-03T06:21:16.899Z,112.00
2018-11-03T06:21:17.498Z,112.00
2018-11-03T06:21:18.096Z,112.00
2018-11-03T06:22:13.337Z,124.00
2018-11-03T06:22:13.876Z,116.00
2018-11-03T06:22:14.486Z,124.00
2018-11-03T06:22:15.083Z,116.00
2018-11-03T06:22:15.676Z,120.00
2018-11-03T06:22:16.294Z,120.00
2018-11-03T06:22:16.920Z,124.00
2018-11-03T06:23:11.486Z,132.00
2018-11-03T06:23:11.993Z,132.00
2018-11-03T06:23:12.701Z,132.00
2018-11-03T06:23:13.151Z,132.00
2018-11-03T06:23:13.851Z,132.00
2018-11-03T06:23:14.444Z,132.00
2018-11-03T06:23:15.022Z,132.00
2018-11-03T06:23:15.519Z,136.00
2018-11-03T06:24:09.017Z,148.00
2018-11-03T06:24:09.576Z,148.00
2018-11-03T06:24:10.175Z,152.00
2018-11-03T06:24:10.805Z,148.00
2018-11-03T06:24:11.376Z,148.00
2018-11-03T06:24:11.976Z,148.00
2018-11-03T06:24:12.576Z,152.00
2018-11-03T06:24:13.174Z,152.00
2018-11-03T06:25:11.674Z,172.00
2018-11-03T06:25:12.246Z,172.00
2018-11-03T06:25:12.844Z,176.00
2018-11-03T06:25:13.444Z,172.00
2018-11-03T06:25:14.045Z,176.00
2018-11-03T06:25:14.644Z,176.00
2018-11-03T06:25:15.273Z,176.00
2018-11-03T06:25:15.843Z,176.00
2018-11-03T06:25:16.442Z,176.00
2018-11-03T06:25:17.043Z,176.00
2018-11-03T06:25:17.642Z,176.00
2018-11-03T06:25:18.269Z,176.00
2018-11-03T06:25:18.841Z,176.00
2018-11-03T06:25:19.442Z,176.00
2018-11-03T06:25:20.045Z,176.00
2018-11-03T06:25:20.643Z,176.00
2018-11-03T06:44:19.581Z,668.00
2018-11-03T06:44:20.158Z,664.00
2018-11-03T06:44:20.756Z,664.00
2018-11-03T06:44:21.354Z,668.00
2018-11-03T06:44:21.955Z,668.00
2018-11-03T06:44:22.554Z,668.00
2018-11-03T06:44:23.153Z,672.00
2018-11-03T06:44:23.765Z,668.00
2018-11-03T06:45:22.254Z,704.00
2018-11-03T06:45:22.822Z,708.00
2018-11-03T06:45:23.424Z,704.00
2018-11-03T06:45:24.028Z,708.00
2018-11-03T06:45:24.622Z,708.00
2018-11-03T06:45:25.222Z,712.00
2018-11-03T06:45:25.823Z,708.00
2018-11-03T06:45:26.423Z,708.00
2018-11-03T06:45:27.022Z,712.00
2018-11-03T06:45:27.621Z,708.00
2018-11-03T06:45:28.222Z,712.00
2018-11-03T06:45:28.821Z,712.00
2018-11-03T06:45:29.425Z,708.00
2018-11-03T06:45:30.022Z,712.00
2018-11-03T06:45:30.621Z,712.00
2018-11-03T06:45:31.221Z,712.00
2018-11-03T08:01:23.546Z,1808.00
2018-11-03T08:01:24.113Z,1804.00
2018-11-03T08:01:24.714Z,1808.00
2018-11-03T08:01:25.313Z,1804.00
2018-11-03T08:01:25.912Z,1804.00
2018-11-03T08:01:26.515Z,1804.00
2018-11-03T08:01:27.113Z,1804.00
2018-11-03T08:01:27.712Z,1804.00
2018-11-03T08:01:28.311Z,1804.00
2018-11-03T08:01:28.914Z,1808.00
2018-11-03T08:01:29.512Z,1808.00
2018-11-03T08:01:30.113Z,1808.00
2018-11-03T08:07:29.385Z,1848.00
2018-11-03T08:07:29.953Z,1848.00
2018-11-03T08:07:30.552Z,1852.00
2018-11-03T08:07:31.154Z,1852.00
2018-11-03T08:07:31.751Z,1848.00
2018-11-03T08:07:32.351Z,1848.00
2018-11-03T08:07:32.952Z,1852.00
2018-11-03T08:07:33.550Z,1852.00
2018-11-03T08:07:34.150Z,1852.00
2018-11-03T08:07:34.752Z,1852.00
2018-11-03T08:07:35.350Z,1856.00
2018-11-03T08:07:35.950Z,1856.00
2018-11-03T08:09:54.823Z,1828.00
2018-11-03T08:11:10.769Z,1812.00
2018-11-03T08:11:11.341Z,1812.00
2018-11-03T08:11:11.939Z,1812.00
2018-11-03T08:11:12.540Z,1812.00
2018-11-03T08:11:13.140Z,1812.00
2018-11-03T08:11:13.743Z,1808.00
2018-11-03T08:12:08.214Z,1780.00
2018-11-03T08:12:08.787Z,1776.00
2018-11-03T08:12:09.423Z,1780.00
2018-11-03T08:12:09.985Z,1776.00
2018-11-03T08:12:10.585Z,1776.00
2018-11-03T08:12:11.184Z,1780.00
2018-11-03T08:12:11.785Z,1780.00
2018-11-03T08:13:27.173Z,1768.00
2018-11-03T08:13:27.736Z,1764.00
2018-11-03T08:13:28.337Z,1764.00
2018-11-03T08:13:28.936Z,1768.00
2018-11-03T08:13:29.535Z,1764.00
2018-11-03T08:13:30.136Z,1764.00
2018-11-03T08:14:24.207Z,1768.00
2018-11-03T08:14:24.776Z,1768.00
2018-11-03T08:14:25.375Z,1768.00
2018-11-03T08:14:25.975Z,1768.00
2018-11-03T08:14:26.574Z,1768.00
2018-11-03T08:14:27.188Z,1768.00
2018-11-03T08:14:27.774Z,1768.00
2018-11-03T08:14:28.372Z,1768.00
2018-11-03T08:15:29.446Z,1768.00
2018-11-03T08:15:30.071Z,1772.00
2018-11-03T08:15:30.659Z,1768.00
2018-11-03T08:15:31.282Z,1768.00
2018-11-03T08:15:31.807Z,1768.00
2018-11-03T08:15:32.456Z,1768.00
2018-11-03T08:15:33.031Z,1768.00
2018-11-03T08:15:33.655Z,1768.00
2018-11-03T08:15:34.252Z,1768.00
2018-11-03T08:15:34.806Z,1768.00
2018-11-03T08:15:35.414Z,1768.00
2018-11-03T08:15:36.027Z,1768.00
2018-11-03T08:16:29.542Z,1772.00
2018-11-03T08:16:30.115Z,1772.00
2018-11-03T08:16:30.716Z,1772.00
2018-11-03T08:16:31.315Z,1772.00
2018-11-03T08:16:31.914Z,1772.00
2018-11-03T08:16:32.513Z,1772.00
2018-11-03T08:16:33.115Z,1772.00
2018-11-03T08:16:33.712Z,1772.00
2018-11-03T08:17:32.212Z,1768.00
2018-11-03T08:17:32.784Z,1768.00
2018-11-03T08:17:33.381Z,1768.00
2018-11-03T08:17:33.980Z,1768.00
2018-11-03T08:17:34.581Z,1768.00
2018-11-03T08:17:35.179Z,1768.00
2018-11-03T08:17:35.781Z,1768.00
2018-11-03T08:17:36.382Z,1768.00
2018-11-03T08:17:36.979Z,1768.00
2018-11-03T08:17:37.579Z,1768.00
2018-11-03T08:17:38.180Z,1768.00
2018-11-03T08:17:38.783Z,1768.00
2018-11-03T08:17:39.378Z,1768.00
2018-11-03T08:17:39.981Z,1768.00
2018-11-03T08:17:40.581Z,1768.00
2018-11-03T08:17:41.177Z,1768.00
2018-11-03T08:45:33.473Z,1564.00
2018-11-03T08:45:34.038Z,1564.00
2018-11-03T08:45:34.637Z,1564.00
2018-11-03T08:45:35.237Z,1564.00
2018-11-03T08:45:35.837Z,1564.00
2018-11-03T08:45:36.438Z,1564.00
2018-11-03T08:45:37.035Z,1564.00
2018-11-03T08:45:37.655Z,1564.00
2018-11-03T08:45:38.233Z,1564.00
2018-11-03T08:45:38.836Z,1564.00
2018-11-03T08:45:39.436Z,1568.00
2018-11-03T08:45:40.033Z,1564.00
2018-11-03T08:47:19.102Z,1588.00
2018-11-03T08:47:19.678Z,1588.00
2018-11-03T08:47:20.282Z,1588.00
2018-11-03T08:47:20.875Z,1588.00
2018-11-03T08:47:21.474Z,1588.00
2018-11-03T08:47:22.074Z,1592.00
2018-11-03T08:47:22.675Z,1584.00
2018-11-03T08:47:23.275Z,1592.00
2018-11-03T08:47:23.880Z,1588.00
2018-11-03T08:47:24.474Z,1588.00
2018-11-03T08:47:25.074Z,1588.00
2018-11-03T08:47:25.672Z,1588.00
2018-11-03T08:47:26.274Z,1588.00
2018-11-03T08:47:26.873Z,1588.00
2018-11-03T08:47:27.473Z,1592.00
2018-11-03T08:47:28.073Z,1592.00
2018-11-03T09:47:18.972Z,1756.00
2018-11-03T09:47:19.545Z,1756.00
2018-11-03T09:47:20.143Z,1756.00
2018-11-03T09:47:20.745Z,1756.00
2018-11-03T09:47:21.345Z,1756.00
2018-11-03T09:48:14.804Z,1760.00
2018-11-03T09:48:15.376Z,1768.00
2018-11-03T09:48:15.982Z,1760.00
2018-11-03T09:48:16.577Z,1760.00